Time;durP1;ratioP1;P1;durP2;ratioP2;P2;SDS_P1;SDS_P2;PMS_P1;PMS_P2;Temp;Humidity;BMP_temperature;BMP_pressure;BME280_temperature;BME280_humidity;BME280_pressure;Samples;Min_cycle;Max_cycle;Signal;HPM_P1;HPM_P2
2022/07/06 00:02:25;;;;;;;0.30;0.30;;;15.80;99.90;16.70;102448.00;;;;5016360;28;20200;-66
2022/07/06 00:05:33;;;;;;;0.60;0.60;;;16.10;99.90;17.10;102423.00;;;;5014708;28;20651;-66
2022/07/06 00:08:34;;;;;;;0.30;0.30;;;16.30;99.90;16.80;102454.00;;;;5015804;28;20194;-66
2022/07/06 00:11:57;;;;;;;0.30;0.30;;;16.20;99.90;16.50;102454.00;;;;5015739;28;20188;-66
2022/07/06 00:14:52;;;;;;;0.30;0.30;;;16.20;99.90;17.00;102450.00;;;;5001827;28;20196;-66
2022/07/06 00:17:53;;;;;;;0.30;0.30;;;16.30;99.90;16.70;102454.00;;;;5015005;28;20176;-66
2022/07/06 00:20:53;;;;;;;0.30;0.30;;;16.10;99.90;16.10;102455.00;;;;5015813;28;20226;-66
2022/07/06 00:24:20;;;;;;;0.30;0.30;;;16.00;99.90;16.20;102456.00;;;;5014494;28;20569;-66
2022/07/06 00:27:28;;;;;;;0.87;0.87;;;15.60;99.90;16.00;102453.00;;;;5014969;28;20174;-66
2022/07/06 00:30:37;;;;;;;0.40;0.40;;;15.50;99.90;16.30;102457.00;;;;5014376;28;20196;-66
2022/07/06 00:33:14;;;;;;;0.40;0.40;;;15.40;99.90;16.40;102467.00;;;;5015968;28;20213;-66
2022/07/06 00:36:06;;;;;;;0.40;0.40;;;15.60;99.90;16.10;102468.00;;;;5016849;28;20200;-66
2022/07/06 00:38:56;;;;;;;0.40;0.40;;;15.60;99.90;16.20;102437.00;;;;5014496;28;20210;-66
2022/07/06 00:41:57;;;;;;;0.40;0.40;;;15.50;99.90;15.70;102458.00;;;;5014074;28;20548;-66
2022/07/06 00:45:01;;;;;;;0.37;0.37;;;15.40;99.90;15.70;102450.00;;;;5014253;28;20190;-66
2022/07/06 00:47:54;;;;;;;0.40;0.40;;;15.30;99.90;15.70;102450.00;;;;5014230;28;20256;-66
2022/07/06 00:50:55;;;;;;;0.40;0.40;;;15.10;99.90;16.00;102449.00;;;;5014077;28;20179;-66
2022/07/06 00:53:40;;;;;;;0.40;0.40;;;15.20;99.90;15.70;102446.00;;;;5015005;28;20209;-66
2022/07/06 00:56:25;;;;;;;0.40;0.40;;;15.10;99.90;15.70;102443.00;;;;4996585;28;20634;-66
2022/07/06 00:59:27;;;;;;;0.43;0.43;;;15.00;99.90;15.60;102436.00;;;;5013885;28;20212;-66
2022/07/06 01:02:30;;;;;;;0.40;0.40;;;15.00;99.90;15.50;102421.00;;;;5014846;28;20192;-66
2022/07/06 01:05:32;;;;;;;0.50;0.50;;;15.00;99.90;15.70;102449.00;;;;5013737;28;20181;-63
2022/07/06 01:08:33;;;;;;;0.50;0.50;;;14.90;99.90;15.40;102440.00;;;;4997168;28;20186;-63
2022/07/06 01:11:19;;;;;;;0.40;0.40;;;14.80;99.90;15.60;102442.00;;;;4997193;28;20587;-64
2022/07/06 01:14:05;;;;;;;0.50;0.50;;;14.90;99.90;15.40;102443.00;;;;5013421;28;20276;-63
2022/07/06 01:16:39;;;;;;;0.50;0.50;;;14.70;99.90;15.10;102447.00;;;;5013180;28;20177;-63
2022/07/06 01:19:40;;;;;;;0.50;0.50;;;14.60;99.90;14.80;102449.00;;;;5013693;28;20180;-63
2022/07/06 01:22:42;;;;;;;0.60;0.60;;;14.40;99.90;14.50;102434.00;;;;5013233;28;20248;-63
2022/07/06 01:25:54;;;;;;;0.50;0.50;;;14.30;99.90;14.80;102410.00;;;;5014889;28;20214;-66
2022/07/06 01:28:55;;;;;;;0.50;0.50;;;14.10;99.90;15.10;102444.00;;;;5013244;28;20193;-63
2022/07/06 01:31:48;;;;;;;0.50;0.50;;;14.30;99.90;15.00;102438.00;;;;5012716;28;20210;-63
2022/07/06 01:34:43;;;;;;;0.57;0.57;;;14.30;99.90;15.20;102440.00;;;;5014595;28;20182;-66
2022/07/06 01:37:46;;;;;;;0.50;0.50;;;14.40;99.90;14.90;102430.00;;;;5014186;28;20174;-63
2022/07/06 01:41:07;;;;;;;0.50;0.50;;;14.30;99.90;14.90;102439.00;;;;5013552;28;20192;-63
2022/07/06 01:44:11;;;;;;;0.50;0.50;;;14.30;99.90;15.00;102434.00;;;;5030726;28;20194;-63
2022/07/06 01:47:12;;;;;;;0.50;0.50;;;14.40;99.90;15.20;102427.00;;;;5046203;28;20188;-63
2022/07/06 01:50:07;;;;;;;0.50;0.50;;;14.50;99.90;15.00;102430.00;;;;5014252;28;20208;-63
2022/07/06 01:53:11;;;;;;;0.50;0.50;;;14.40;99.90;14.90;102432.00;;;;5014197;28;20513;-63
2022/07/06 01:56:15;;;;;;;0.50;0.50;;;14.30;99.90;15.00;102431.00;;;;5030944;28;20215;-63
2022/07/06 01:59:07;;;;;;;0.50;0.50;;;14.40;99.90;14.90;102428.00;;;;4984963;28;20193;-63
2022/07/06 02:02:12;;;;;;;0.60;0.60;;;14.30;99.90;15.30;102427.00;;;;5013308;28;20196;-63
2022/07/06 02:05:16;;;;;;;0.50;0.50;;;14.50;99.90;15.10;102418.00;;;;5013068;28;20173;-63
2022/07/06 02:08:11;;;;;;;0.60;0.60;;;14.50;99.90;15.20;102422.00;;;;5012594;28;20207;-63
2022/07/06 02:10:55;;;;;;;0.60;0.60;;;14.50;99.90;15.20;102429.00;;;;5012799;28;20182;-63
2022/07/06 02:13:41;;;;;;;0.50;0.50;;;14.40;99.90;15.00;102392.00;;;;5012574;28;20571;-64
2022/07/06 02:16:42;;;;;;;0.50;0.50;;;14.40;99.90;15.10;102436.00;;;;5014032;28;20176;-64
2022/07/06 02:19:46;;;;;;;0.50;0.50;;;14.40;99.90;15.00;102433.00;;;;5012564;28;20195;-64
2022/07/06 02:22:49;;;;;;;0.50;0.50;;;14.40;99.90;14.90;102389.00;;;;5013765;28;20188;-64
2022/07/06 02:25:35;;;;;;;0.50;0.50;;;14.30;99.90;15.00;102427.00;;;;5012486;28;20199;-64
2022/07/06 02:28:19;;;;;;;0.60;0.60;;;14.30;99.90;14.80;102425.00;;;;5012056;28;20199;-64
2022/07/06 02:31:13;;;;;;;0.60;0.60;;;14.20;99.90;15.20;102421.00;;;;5012468;28;20192;-64
2022/07/06 02:34:16;;;;;;;0.60;0.60;;;14.40;99.90;15.10;102412.00;;;;5013464;28;20191;-64
2022/07/06 02:37:23;;;;;;;0.60;0.60;;;14.40;99.90;14.90;102403.00;;;;5013525;28;20176;-64
2022/07/06 02:40:27;;;;;;;0.60;0.60;;;14.30;99.90;15.10;102402.00;;;;5012420;28;20238;-64
2022/07/06 02:43:28;;;;;;;0.60;0.60;;;14.40;99.90;14.90;102405.00;;;;5011890;28;20192;-64
2022/07/06 02:46:37;;;;;;;0.50;0.50;;;14.30;99.90;14.70;102406.00;;;;5013373;28;20181;-64
2022/07/06 02:49:45;;;;;;;0.60;0.60;;;14.10;99.90;14.40;102377.00;;;;5012368;28;20262;-64
2022/07/06 02:52:46;;;;;;;0.60;0.60;;;14.00;99.90;14.80;102422.00;;;;5000233;28;20299;-64
2022/07/06 02:56:05;;;;;;;0.60;0.60;;;14.10;99.90;14.60;102414.00;;;;5013483;28;20247;-64
2022/07/06 02:59:05;;;;;;;0.57;0.57;;;14.00;99.90;14.70;102413.00;;;;4995730;28;20183;-64
2022/07/06 03:02:07;;;;;;;0.50;0.50;;;14.00;99.90;14.90;102415.00;;;;5013766;28;20179;-64
2022/07/06 03:05:11;;;;;;;0.60;0.60;;;14.00;99.90;14.90;102417.00;;;;5012297;28;20180;-64
2022/07/06 03:08:12;;;;;;;0.70;0.70;;;14.20;99.90;15.00;102413.00;;;;4997377;28;20545;-64
2022/07/06 03:11:03;;;;;;;0.70;0.70;;;14.20;99.90;14.90;102420.00;;;;5012350;28;20180;-64
2022/07/06 03:13:54;;;;;;;0.70;0.70;;;14.20;99.90;14.80;102407.00;;;;4995289;28;20196;-64
2022/07/06 03:16:38;;;;;;;0.60;0.60;;;14.20;99.90;14.90;102413.00;;;;5012249;28;20160;-64
2022/07/06 03:19:24;;;;;;;0.60;0.60;;;14.20;99.90;14.70;102408.00;;;;4997661;28;20551;-64
2022/07/06 03:22:09;;;;;;;0.63;0.63;;;14.10;99.90;14.90;102417.00;;;;5017074;28;20179;-64
2022/07/06 03:25:04;;;;;;;0.67;0.67;;;14.10;99.90;14.70;102408.00;;;;5015579;28;20292;-64
2022/07/06 03:27:50;;;;;;;0.50;0.50;;;14.10;99.90;14.60;102417.00;;;;5011735;28;20203;-64
2022/07/06 03:30:51;;;;;;;0.60;0.60;;;14.00;99.90;14.40;102427.00;;;;4984517;28;20207;-64
2022/07/06 03:33:44;;;;;;;0.60;0.60;;;13.80;99.90;14.50;102428.00;;;;4999092;28;20220;-64
2022/07/06 03:36:32;;;;;;;0.60;0.60;;;13.80;99.90;14.40;102423.00;;;;5015550;28;20205;-64
2022/07/06 03:39:33;;;;;;;0.73;0.73;;;13.70;99.90;14.50;102432.00;;;;5034188;28;20644;-64
2022/07/06 03:42:16;;;;;;;0.60;0.60;;;13.80;99.90;14.40;102438.00;;;;5035989;28;20189;-64
2022/07/06 03:45:17;;;;;;;0.60;0.60;;;13.70;99.90;14.40;102423.00;;;;5036574;28;20177;-64
2022/07/06 03:48:18;;;;;;;0.60;0.60;;;13.70;99.90;14.60;102410.00;;;;5036280;28;20176;-64
2022/07/06 03:51:31;;;;;;;0.60;0.60;;;13.70;99.90;14.40;102427.00;;;;5036023;28;20183;-64
2022/07/06 03:54:21;;;;;;;0.60;0.60;;;13.80;99.90;14.80;102392.00;;;;5034896;28;20279;-64
2022/07/06 03:57:46;;;;;;;0.60;0.60;;;13.90;99.90;14.80;102423.00;;;;5018249;28;20637;-64
2022/07/06 04:00:40;;;;;;;0.60;0.60;;;14.10;99.90;14.80;102424.00;;;;5036144;28;20192;-64
2022/07/06 04:03:40;;;;;;;0.70;0.70;;;14.20;99.90;14.60;102425.00;;;;5034585;28;20220;-64
2022/07/06 04:06:31;;;;;;;0.70;0.70;;;14.00;99.90;14.90;102387.00;;;;5018108;28;20195;-64
2022/07/06 04:09:32;;;;;;;0.70;0.70;;;14.10;99.90;14.80;102402.00;;;;5035891;28;20195;-64
2022/07/06 04:12:44;;;;;;;0.60;0.60;;;14.20;99.90;15.10;102408.00;;;;5035740;28;20251;-64
2022/07/06 04:15:35;;;;;;;0.70;0.70;;;14.30;99.90;15.50;102405.00;;;;5034426;28;20188;-64
2022/07/06 04:18:29;;;;;;;1.47;1.37;;;14.60;99.90;15.00;102405.00;;;;5034678;28;20192;-64
2022/07/06 04:21:26;;;;;;;0.60;0.60;;;14.70;99.90;14.60;102412.00;;;;5034284;28;20189;-64
2022/07/06 04:24:29;;;;;;;0.40;0.40;;;14.50;99.90;15.10;102419.00;;;;5035408;28;20645;-64
2022/07/06 04:27:20;;;;;;;0.53;0.53;;;14.50;99.90;15.20;102420.00;;;;5035319;28;20279;-64
2022/07/06 04:30:25;;;;;;;0.40;0.40;;;14.70;99.90;15.60;102416.00;;;;5035314;28;20178;-64
2022/07/06 04:33:26;;;;;;;0.50;0.50;;;14.90;99.90;15.90;102423.00;;;;5035237;28;20213;-64
2022/07/06 04:36:32;;;;;;;0.50;0.50;;;15.10;99.90;16.60;102422.00;;;;5035419;28;20179;-64
2022/07/06 04:39:24;;;;;;;0.50;0.50;;;15.50;99.90;17.40;102415.00;;;;5035184;28;20232;-64
2022/07/06 04:42:31;;;;;;;1.13;1.13;;;16.40;99.90;17.10;102406.00;;;;5035401;28;20324;-64
2022/07/06 04:45:27;;;;;;;0.30;0.30;;;16.50;99.90;18.10;102399.00;;;;5033759;28;20235;-64
2022/07/06 04:48:38;;;;;;;0.30;0.30;;;17.00;99.90;18.70;102387.00;;;;5017433;28;20190;-64
2022/07/06 04:51:39;;;;;;;0.30;0.30;;;17.60;99.90;19.30;102411.00;;;;5033681;28;20222;-64
2022/07/06 04:54:40;;;;;;;0.30;0.30;;;18.10;99.90;19.90;102425.00;;;;5034780;28;20194;-64
2022/07/06 04:57:41;;;;;;;0.30;0.30;;;18.60;99.90;20.30;102442.00;;;;5016864;28;20678;-64
2022/07/06 05:00:42;;;;;;;0.20;0.20;;;19.10;99.90;20.50;102453.00;;;;5033810;28;20168;-65
2022/07/06 05:03:15;;;;;;;0.20;0.20;;;19.50;99.90;20.30;102470.00;;;;5033469;28;20663;-64
2022/07/06 05:06:36;;;;;;;0.20;0.20;;;19.60;99.90;19.20;102413.00;;;;5034730;28;20575;-65
2022/07/06 05:09:37;;;;;;;0.20;0.20;;;18.80;99.90;18.20;102419.00;;;;5033263;28;20239;-64
2022/07/06 05:12:23;;;;;;;0.20;0.20;;;18.50;99.90;19.40;102453.00;;;;5033014;28;20211;-64
2022/07/06 05:15:27;;;;;;;0.20;0.20;;;18.70;99.90;18.90;102470.00;;;;5017470;28;20182;-65
2022/07/06 05:18:30;;;;;;;3.73;1.73;;;18.80;99.90;17.50;102381.00;;;;5034513;28;20180;-65
2022/07/06 05:21:35;;;;;;;0.30;0.30;;;17.80;99.90;17.40;102416.00;;;;5033358;28;20177;-65
2022/07/06 05:24:39;;;;;;;0.20;0.20;;;17.40;99.90;20.50;102462.00;;;;5033336;28;20197;-65
2022/07/06 05:27:40;;;;;;;0.10;0.10;;;18.80;99.90;23.60;102520.00;;;;5033205;28;20221;-65
2022/07/06 05:30:44;;;;;;;2.25;0.98;;;21.20;99.90;24.50;102558.00;;;;5033262;28;20175;-65
2022/07/06 05:34:07;;;;;;;1.73;1.63;;;22.80;99.90;22.40;102556.00;;;;5066379;28;20211;-65
2022/07/06 05:36:44;;;;;;;0.80;0.80;;;22.00;99.90;19.70;102475.00;;;;5033836;28;20189;-65
2022/07/06 05:39:46;;;;;;;1.25;1.17;;;20.20;99.90;21.50;102529.00;;;;5033948;28;20208;-65
2022/07/06 05:42:57;;;;;;;0.80;0.45;;;20.20;99.90;23.30;102566.00;;;;5032182;28;20170;-65
2022/07/06 05:46:00;;;;;;;0.20;0.20;;;21.50;99.90;22.40;102577.00;;;;5032597;28;20186;-65
2022/07/06 05:52:21;;;;;;;0.10;0.10;;;21.10;99.90;20.40;102542.00;;;;5033374;28;20209;-65
2022/07/06 05:55:15;;;;;;;0.80;0.52;;;20.00;99.90;19.50;102535.00;;;;5032618;28;20189;-65
2022/07/06 05:58:15;;;;;;;1.42;1.33;;;19.60;99.90;18.90;102501.00;;;;5032598;28;20252;-65
2022/07/06 06:01:07;;;;;;;0.13;0.13;;;18.80;99.90;18.20;102482.00;;;;5034088;28;20261;-65
2022/07/06 06:04:02;;;;;;;0.93;0.93;;;18.10;99.90;18.60;102487.00;;;;5016322;28;20197;-65
2022/07/06 06:06:45;;;;;;;0.52;0.52;;;18.00;99.90;17.70;102469.00;;;;5015635;28;20182;-65
2022/07/06 06:09:34;;;;;;;0.67;0.67;;;17.90;99.90;18.10;102461.00;;;;5033699;28;20177;-65
2022/07/06 06:12:56;;;;;;;1.17;1.07;;;17.70;99.90;17.80;102435.00;;;;5015982;28;20207;-65
2022/07/06 06:16:00;;;;;;;2.83;2.20;;;17.80;99.90;17.10;102452.00;;;;5033657;28;20182;-65
2022/07/06 06:19:12;;;;;;;1.60;1.50;;;17.30;99.90;17.10;102444.00;;;;5033341;28;20179;-65
2022/07/06 06:22:03;;;;;;;1.13;1.03;;;17.20;99.90;17.70;102450.00;;;;5031953;28;20182;-65
2022/07/06 06:25:11;;;;;;;0.80;0.57;;;17.30;99.90;17.90;102463.00;;;;5032089;28;20193;-65
2022/07/06 06:28:16;;;;;;;1.93;1.83;;;17.60;99.90;18.40;102471.00;;;;5015731;28;20231;-65
2022/07/06 06:31:23;;;;;;;2.20;1.43;;;18.00;99.90;19.50;102496.00;;;;5033643;28;20185;-65
2022/07/06 06:34:09;;;;;;;0.80;0.80;;;18.80;99.90;20.00;102502.00;;;;5033435;28;20592;-65
2022/07/06 06:37:12;;;;;;;1.38;1.30;;;19.20;99.90;21.10;102545.00;;;;5033139;28;20202;-65
2022/07/06 06:40:31;;;;;;;1.00;0.93;;;20.10;99.90;20.00;102549.00;;;;5033107;28;20543;-65
2022/07/06 06:43:32;;;;;;;0.40;0.40;;;20.10;99.90;20.50;102557.00;;;;5032013;28;20213;-65
2022/07/06 06:46:40;;;;;;;0.30;0.30;;;20.40;99.90;21.00;102578.00;;;;5033073;28;20623;-65
2022/07/06 06:49:23;;;;;;;0.10;0.10;;;20.60;99.90;23.80;102571.00;;;;5015544;28;20190;-65
2022/07/06 06:52:14;;;;;;;0.10;0.10;;;22.10;99.90;25.80;102622.00;;;;5032441;28;20650;-66
2022/07/06 06:55:05;;;;;;;0.10;0.10;;;23.80;99.90;22.80;102630.00;;;;5036640;28;20182;-65
2022/07/06 06:58:07;;;;;;;0.20;0.20;;;23.10;99.90;21.60;102606.00;;;;5019195;28;20189;-65
2022/07/06 07:01:08;;;;;;;0.10;0.10;;;21.60;99.90;20.90;102595.00;;;;5035830;28;20189;-65
2022/07/06 07:03:52;;;;;;;3.97;1.88;;;21.10;99.90;21.20;102607.00;;;;5019193;28;20185;-65
2022/07/06 07:06:52;;;;;;;0.47;0.40;;;21.00;99.90;20.30;102559.00;;;;5035656;28;20178;-65
2022/07/06 07:10:03;;;;;;;0.43;0.40;;;19.80;99.90;20.80;102583.00;;;;5035651;28;20177;-65
2022/07/06 07:13:07;;;;;;;2.35;0.65;;;20.60;99.90;21.20;102597.00;;;;5036854;28;20206;-65
2022/07/06 07:16:10;;;;;;;0.10;0.10;;;20.30;99.90;23.60;102643.00;;;;5035231;28;20680;-65
2022/07/06 07:19:02;;;;;;;1.63;1.52;;;21.80;99.90;22.00;102649.00;;;;5053983;28;20190;-65
2022/07/06 07:22:10;;;;;;;0.22;0.22;;;22.40;99.90;21.60;102642.00;;;;5035973;28;20570;-65
2022/07/06 07:25:12;;;;;;;1.20;1.10;;;21.30;99.90;21.70;102644.00;;;;5023443;28;20175;-65
2022/07/06 07:28:02;;;;;;;0.38;0.38;;;21.40;99.90;23.40;102664.00;;;;5035805;28;20181;-65
2022/07/06 07:31:04;;;;;;;0.20;0.20;;;22.30;99.90;22.90;102660.00;;;;5036891;28;20249;-65
2022/07/06 07:33:48;;;;;;;0.35;0.35;;;21.90;99.90;21.10;102640.00;;;;5036385;28;20219;-65
2022/07/06 07:36:52;;;;;;;0.68;0.68;;;21.20;99.90;22.00;102628.00;;;;5036487;28;20175;-65
2022/07/06 07:39:53;;;;;;;0.20;0.20;;;21.30;99.90;23.60;102603.00;;;;5036251;28;20177;-65
2022/07/06 07:43:14;;;;;;;1.65;1.08;;;22.00;99.90;22.00;102641.00;;;;5035351;28;20182;-65
2022/07/06 07:46:38;;;;;;;1.50;1.23;;;21.80;99.90;22.70;102651.00;;;;5035986;28;20645;-65
2022/07/06 07:49:24;;;;;;;0.47;0.47;;;22.40;99.90;22.30;102646.00;;;;5036433;28;20320;-65
2022/07/06 07:52:27;;;;;;;1.35;1.00;;;21.80;99.90;23.50;102624.00;;;;5034824;28;20392;-66
2022/07/06 07:55:32;;;;;;;0.32;0.32;;;22.40;99.90;25.70;102651.00;;;;5034966;28;20178;-66
2022/07/06 07:58:35;;;;;;;0.30;0.30;;;23.80;99.90;28.20;102632.00;;;;5022144;28;20618;-66
2022/07/06 08:01:36;;;;;;;0.32;0.32;;;26.00;99.90;25.40;102638.00;;;;5034783;28;20567;-66
2022/07/06 08:04:39;;;;;;;1.27;0.43;;;24.90;99.90;25.10;102627.00;;;;5034165;28;20629;-66
2022/07/06 08:07:40;;;;;;;0.10;0.10;;;24.90;99.90;27.80;102612.00;;;;5035734;28;20175;-66
2022/07/06 08:10:51;;;;;;;0.20;0.20;;;26.00;99.90;29.60;102543.00;;;;5035683;28;20225;-66
2022/07/06 08:14:01;;;;;;;0.30;0.30;;;27.60;99.90;26.20;102560.00;;;;5034724;28;20580;-66
2022/07/06 08:16:49;;;;;;;0.10;0.10;;;26.70;98.30;28.30;102589.00;;;;5035388;28;20626;-66
2022/07/06 08:19:45;;;;;;;0.10;0.10;;;26.90;99.70;29.90;102568.00;;;;5019705;28;20186;-66
2022/07/06 08:22:57;;;;;;;0.10;0.10;;;28.20;96.90;30.00;102568.00;;;;5034557;28;20274;-66
2022/07/06 08:25:49;;;;;;;0.10;0.10;;;28.60;95.20;29.30;102574.00;;;;5067472;28;20273;-66
2022/07/06 08:28:40;;;;;;;0.22;0.22;;;28.50;94.40;27.00;102595.00;;;;5034220;28;20203;-66
2022/07/06 08:31:41;;;;;;;0.10;0.10;;;27.80;94.80;26.40;102608.00;;;;5034240;28;20199;-66
2022/07/06 08:34:25;;;;;;;0.30;0.30;;;25.60;98.20;22.50;102617.00;;;;5034073;28;20196;-66
2022/07/06 08:37:28;;;;;;;0.30;0.30;;;23.90;99.20;22.10;102626.00;;;;5035441;28;20193;-66
2022/07/06 08:40:34;;;;;;;0.10;0.10;;;22.80;99.90;23.70;102621.00;;;;5052181;28;20294;-66
2022/07/06 08:43:36;;;;;;;0.43;0.43;;;22.60;99.90;22.00;102611.00;;;;5035278;28;20187;-66
2022/07/06 08:46:22;;;;;;;0.20;0.20;;;22.50;99.90;21.70;102614.00;;;;5033484;28;20564;-66
2022/07/06 08:49:26;;;;;;;3.22;1.00;;;21.50;99.90;21.40;102616.00;;;;5035064;28;20181;-65
2022/07/06 08:52:49;;;;;;;0.10;0.10;;;21.30;99.90;23.80;102618.00;;;;5017431;28;20576;-66
2022/07/06 08:55:50;;;;;;;0.10;0.10;;;21.90;99.90;26.30;102604.00;;;;5033708;28;20189;-66
2022/07/06 08:58:55;;;;;;;0.55;0.55;;;24.40;99.90;27.10;102611.00;;;;5033858;28;20182;-66
2022/07/06 09:02:00;;;;;;;0.10;0.10;;;25.40;99.90;26.70;102609.00;;;;5033602;28;20736;-66
2022/07/06 09:05:13;;;;;;;0.40;0.40;;;25.80;99.90;28.80;102583.00;;;;5033598;28;20189;-66
2022/07/06 09:07:57;;;;;;;0.10;0.10;;;27.10;99.90;29.20;102569.00;;;;5033507;28;20532;-66
2022/07/06 09:10:58;;;;;;;0.20;0.20;;;27.80;98.20;28.30;102590.00;;;;5034541;28;20163;-66
2022/07/06 09:14:02;;;;;;;0.10;0.10;;;27.20;97.60;27.60;102602.00;;;;5033211;28;20217;-66
2022/07/06 09:17:05;;;;;;;0.10;0.10;;;26.80;97.60;26.30;102603.00;;;;5032213;28;20537;-66
2022/07/06 09:20:18;;;;;;;0.10;0.10;;;26.00;97.80;25.80;102629.00;;;;5034452;28;20220;-66
2022/07/06 09:23:43;;;;;;;0.10;0.10;;;24.90;99.90;24.90;102613.00;;;;5034114;28;20186;-66
2022/07/06 09:26:44;;;;;;;0.20;0.20;;;24.20;99.90;25.90;102624.00;;;;5033494;28;20178;-66
2022/07/06 09:29:29;;;;;;;0.10;0.10;;;24.50;99.90;26.80;102618.00;;;;5034206;28;20175;-66
2022/07/06 09:32:38;;;;;;;0.10;0.10;;;25.20;99.90;27.60;102612.00;;;;5032865;28;20269;-66
2022/07/06 09:35:30;;;;;;;0.20;0.20;;;26.10;99.90;25.90;102623.00;;;;5036559;28;20586;-66
2022/07/06 09:38:40;;;;;;;0.10;0.10;;;25.90;99.60;25.10;102630.00;;;;5034093;28;20179;-66
2022/07/06 09:41:44;;;;;;;0.10;0.10;;;25.00;99.90;26.00;102622.00;;;;5065896;28;20163;-66
2022/07/06 09:44:40;;;;;;;0.10;0.10;;;24.80;99.90;27.10;102614.00;;;;5033140;28;20178;-66
2022/07/06 09:47:46;;;;;;;0.10;0.10;;;25.40;99.90;27.10;102619.00;;;;5032781;28;20173;-66
2022/07/06 09:50:43;;;;;;;6.75;0.55;;;25.80;99.90;24.30;102634.00;;;;5032762;28;20182;-65
2022/07/06 09:54:10;;;;;;;0.15;0.15;;;25.00;98.60;24.50;102653.00;;;;5032286;28;20214;-65
2022/07/06 09:56:57;;;;;;;0.10;0.10;;;23.50;99.90;24.70;102647.00;;;;5032610;28;20178;-65
2022/07/06 09:59:58;;;;;;;0.10;0.10;;;23.80;99.90;24.70;102657.00;;;;5032520;28;20217;-65
2022/07/06 10:02:59;;;;;;;0.10;0.10;;;24.10;99.90;24.50;102657.00;;;;5032476;28;20549;-65
2022/07/06 10:05:49;;;;;;;0.10;0.10;;;24.20;99.90;25.40;102644.00;;;;5015488;28;20190;-65
2022/07/06 10:08:54;;;;;;;0.10;0.10;;;24.20;99.90;25.50;102649.00;;;;5016302;28;20637;-65
2022/07/06 10:11:45;;;;;;;0.25;0.25;;;24.30;99.90;26.50;102633.00;;;;5050624;28;20225;-66
2022/07/06 10:14:31;;;;;;;0.10;0.10;;;24.80;99.90;26.70;102635.00;;;;5032025;28;20183;-66
2022/07/06 10:17:33;;;;;;;0.15;0.15;;;25.30;99.90;26.80;102632.00;;;;5032485;28;20185;-66
2022/07/06 10:20:19;;;;;;;0.10;0.10;;;25.70;99.30;25.10;102641.00;;;;5048214;28;20196;-66
2022/07/06 10:33:58;;;;;;;0.50;0.50;;;23.80;99.90;25.00;102647.00;;;;5050456;28;20548;-66
2022/07/06 10:36:44;;;;;;;0.43;0.43;;;24.30;99.90;25.00;102613.00;;;;5046103;28;20254;-66
2022/07/06 10:42:53;;;;;;;0.80;0.80;;;24.70;99.90;23.40;102640.00;;;;5030635;28;20174;-66
2022/07/06 10:45:28;;;;;;;1.27;0.98;;;23.80;99.90;23.30;102632.00;;;;5030551;28;20183;-66
2022/07/06 10:48:29;;;;;;;0.10;0.10;;;23.60;99.90;25.40;102641.00;;;;5030629;28;20174;-67
2022/07/06 10:51:32;;;;;;;0.60;0.60;;;24.10;99.90;24.90;102634.00;;;;5030766;28;20254;-66
2022/07/06 10:54:40;;;;;;;0.10;0.10;;;24.00;99.90;25.80;102634.00;;;;5045940;28;20199;-66
2022/07/06 10:57:53;;;;;;;0.98;0.98;;;24.10;99.90;25.10;102628.00;;;;5029091;28;20510;-66
2022/07/06 11:00:54;;;;;;;0.10;0.10;;;24.60;99.90;27.60;102615.00;;;;5029421;28;20233;-67
2022/07/06 11:04:08;;;;;;;0.10;0.10;;;25.90;99.90;29.20;102583.00;;;;5045754;28;20269;-67
2022/07/06 11:07:09;;;;;;;1.95;1.85;;;27.30;99.90;25.40;102623.00;;;;5030304;28;20191;-66
2022/07/06 11:10:17;;;;;;;1.02;0.52;;;25.60;99.80;25.20;102642.00;;;;5030217;28;20695;-66
2022/07/06 11:13:25;;;;;;;0.10;0.10;;;24.60;99.90;26.80;102619.00;;;;5045316;28;20605;-67
2022/07/06 11:16:33;;;;;;;0.10;0.10;;;25.50;99.90;26.30;102622.00;;;;5028778;28;20178;-66
2022/07/06 11:19:27;;;;;;;0.10;0.10;;;26.10;99.90;27.60;102620.00;;;;5028916;28;20175;-66
2022/07/06 11:22:11;;;;;;;0.40;0.35;;;26.40;99.90;28.90;102600.00;;;;5045824;28;20187;-67
2022/07/06 11:24:57;;;;;;;0.10;0.10;;;27.40;99.90;29.20;102593.00;;;;5044923;28;20191;-67
2022/07/06 11:27:42;;;;;;;0.17;0.17;;;28.10;99.50;25.60;102611.00;;;;5028879;28;20171;-66
2022/07/06 11:30:29;;;;;;;0.63;0.63;;;26.00;99.40;26.30;102578.00;;;;5029878;28;20175;-66
2022/07/06 11:33:31;;;;;;;0.20;0.20;;;25.70;99.90;27.80;102613.00;;;;5045359;28;20321;-67
2022/07/06 11:36:22;;;;;;;1.65;0.57;;;26.40;99.90;26.20;102615.00;;;;5045108;28;20239;-67
2022/07/06 11:39:08;;;;;;;0.65;0.65;;;25.90;99.90;23.60;102624.00;;;;5028086;28;20209;-66
2022/07/06 11:41:54;;;;;;;3.80;2.53;;;23.80;99.90;24.30;102619.00;;;;5028701;28;20325;-67
2022/07/06 11:44:41;;;;;;;0.35;0.35;;;23.90;99.90;24.90;102603.00;;;;5032929;28;20183;-66
2022/07/06 11:47:30;;;;;;;0.73;0.70;;;24.40;99.90;23.40;102602.00;;;;5031762;28;20179;-66
2022/07/06 11:50:20;;;;;;;2.53;0.30;;;23.90;99.90;23.20;102575.00;;;;5031539;28;20222;-66
2022/07/06 11:53:06;;;;;;;1.25;1.23;;;22.90;99.90;25.40;102605.00;;;;5031764;28;20270;-66
2022/07/06 11:55:52;;;;;;;2.08;1.45;;;23.90;99.90;26.10;102591.00;;;;5015723;28;20183;-67
2022/07/06 11:58:43;;;;;;;1.67;0.88;;;24.90;99.90;23.70;102582.00;;;;5016186;28;20233;-66
2022/07/06 12:01:33;;;;;;;1.20;0.82;;;23.90;99.90;23.10;102588.00;;;;5031076;28;20643;-66
2022/07/06 12:04:16;;;;;;;1.80;1.40;;;22.90;99.90;23.70;102587.00;;;;5031667;28;20180;-66
2022/07/06 12:07:08;;;;;;;4.82;2.35;;;22.90;99.90;22.70;102585.00;;;;5031149;28;20171;-66
2022/07/06 12:09:48;;;;;;;0.10;0.10;;;22.80;99.90;23.70;102555.00;;;;5014643;28;20267;-66
2022/07/06 12:12:19;;;;;;;0.10;0.10;;;22.70;99.90;24.80;102582.00;;;;5031198;28;20624;-66
2022/07/06 12:15:06;;;;;;;0.95;0.93;;;23.40;99.90;25.10;102572.00;;;;5014762;28;20266;-66
2022/07/06 12:17:52;;;;;;;0.15;0.15;;;24.00;99.90;25.10;102579.00;;;;5030951;28;20688;-66
2022/07/06 12:20:36;;;;;;;1.30;1.15;;;24.00;99.90;22.70;102575.00;;;;5031358;28;20168;-66
2022/07/06 12:23:24;;;;;;;0.10;0.10;;;22.70;99.90;24.80;102578.00;;;;5014496;28;20193;-66
2022/07/06 12:26:11;;;;;;;0.43;0.43;;;23.30;99.90;25.70;102571.00;;;;5031018;28;20291;-66
2022/07/06 12:29:10;;;;;;;0.82;0.82;;;24.20;99.90;24.80;102569.00;;;;5015693;28;20243;-67
2022/07/06 12:35:29;;;;;;;0.10;0.10;;;23.70;99.90;25.50;102574.00;;;;5014524;28;20199;-66
2022/07/06 12:38:12;;;;;;;0.10;0.10;;;24.20;99.90;25.70;102567.00;;;;5013655;28;20258;-66
2022/07/06 12:41:08;;;;;;;0.47;0.47;;;24.40;99.90;23.70;102572.00;;;;5014211;28;20217;-66
2022/07/06 12:47:23;;;;;;;2.28;1.85;;;23.40;99.90;24.30;102548.00;;;;5015599;28;20544;-66
2022/07/06 12:50:11;;;;;;;0.25;0.25;;;23.60;99.90;23.50;102572.00;;;;5015140;28;20179;-66
2022/07/06 12:53:24;;;;;;;0.38;0.32;;;22.90;99.90;23.30;102567.00;;;;5030106;28;20687;-66
2022/07/06 12:56:11;;;;;;;0.20;0.20;;;22.50;99.90;24.80;102570.00;;;;5012623;28;20202;-66
2022/07/06 12:58:59;;;;;;;0.10;0.10;;;23.30;99.90;25.20;102562.00;;;;5030260;28;20234;-66
2022/07/06 13:01:47;;;;;;;0.10;0.10;;;23.80;99.90;26.20;102551.00;;;;5013737;28;20196;-66
2022/07/06 13:04:32;;;;;;;4.03;1.98;;;24.50;99.90;24.80;102549.00;;;;5013795;28;20525;-66
2022/07/06 13:07:21;;;;;;;0.52;0.52;;;24.60;99.90;24.80;102554.00;;;;5013264;28;20271;-66
2022/07/06 13:10:08;;;;;;;1.67;1.55;;;24.00;99.90;23.70;102525.00;;;;5013513;28;20183;-66
2022/07/06 13:12:52;;;;;;;0.10;0.10;;;23.30;99.90;24.60;102559.00;;;;5029841;28;20203;-66
2022/07/06 13:15:36;;;;;;;1.33;1.25;;;23.40;99.90;23.80;102553.00;;;;5013348;28;20198;-66
2022/07/06 13:18:42;;;;;;;0.10;0.10;;;23.20;99.90;24.90;102554.00;;;;5030311;28;20241;-66
2022/07/06 13:21:28;;;;;;;0.40;0.40;;;23.50;99.90;24.20;102549.00;;;;5046143;28;20183;-66
2022/07/06 13:24:14;;;;;;;0.10;0.10;;;23.70;99.90;24.10;102557.00;;;;5013594;28;20187;-66
2022/07/06 13:27:03;;;;;;;0.10;0.10;;;23.20;99.90;25.30;102540.00;;;;5029610;28;20226;-66